Карточка аэропорта UNAA

Внимание!
Информация на этой странице в стадии наполнения.
Если вы не увидели какой-то информации, или заметили неточность - пожалуйста сообщите нам!
Спасибо!
Команда RU-STAFF
Название аэропортаАбакан
Название аэропорта (англ.)Abakan
Превышение830 ft. (253 m.)
Координаты53°44.4', 91°23.118'
Высота перехода1400m
Эшелон переходаQFE>=724mm:FL070; QFE<724:FL080
Коды ответчика5430-5437
Зона ОрВДКрасноярск РПИ (UNKL)
Данные METARUNAA 082200Z 00000MPS 1100 1000SW R02/P2000U BR FU SCT004 M30/M32 Q1036 R02/320060 NOSIG RMK QFE754
Проноз погоды (TAF)UNAA 082000Z 0821/0921 22002MPS 0900 FZFG FU SCT005 TEMPO 0821/0904 0250 FZFG FU VV002 BECMG 0904/0907 1600 BR FU FEW005 TEMPO 0907/0921 0900 FZFG FU BKN005
NOTAMshow/hide NOTAM
AWOS   TABLE

Информация о ВПП

ВПП Длина ВПП (м.) Покрытие Курс ВПП Частота ILS
02R3250Асфальтобетон21110.3
20L3250Асфальтобетон201109.9

Диспетчерские позиции

Позывной Наименование органа УВД Частота
UNAA_R_APPАбакан-Круг134.3
UNAA_TWRАбакан-Старт122.0



Спутниковое изображение